Big Bear Station Historical Data
Daily Summary for September 4, 2017 Units:  English    Metric   Both
« Previous Day
Next Day »
Daily Weekly Monthly Yearly Custom
  High: Low: Average:
Temperature: 75.4 °F 54.0 °F 66.4 °F
Dew Point: 60.6 °F 48.3 °F 52.4 °F
Humidity: 85 % 42 % 62 %
Wind Speed: 5.3 mph 0.0 mph 1.3 mph
Wind Gust: -999.0 mph - -
Wind:- - SW
Pressure: 30.29 in 30.24 in -
Precipitation: 0.00 in    
Historical Graphs
 
 
Tabular Data for September 4, 2017
Time Temperature Dew Point Pressure Wind Wind Speed Wind Gust Humidity Rainfall Rate (Hourly)
00:07 64.2 °F 50.0 °F 30.28 in Calm   -999.0 mph 60 % 0 in
00:22 64.0 °F 49.8 °F 30.28 in Calm   -999.0 mph 60 % 0 in
00:38 63.9 °F 49.3 °F 30.28 in WNW 1.1 mph -999.0 mph 59 % 0 in
00:53 63.7 °F 48.6 °F 30.27 in Calm   -999.0 mph 58 % 0 in
01:08 63.3 °F 48.7 °F 30.27 in Calm   -999.0 mph 59 % 0 in
01:23 63.1 °F 48.5 °F 30.27 in Calm   -999.0 mph 59 % 0 in
01:38 63.0 °F 49.3 °F 30.27 in Calm   -999.0 mph 61 % 0 in
01:54 62.6 °F 49.4 °F 30.26 in Calm   -999.0 mph 62 % 0 in
02:09 62.1 °F 49.8 °F 30.26 in Calm   -999.0 mph 64 % 0 in
02:24 61.7 °F 49.8 °F 30.26 in Calm   -999.0 mph 65 % 0 in
02:40 61.7 °F 49.8 °F 30.26 in SSE 1.7 mph -999.0 mph 65 % 0 in
02:55 61.7 °F 49.8 °F 30.26 in Calm   -999.0 mph 65 % 0 in
03:10 61.7 °F 50.2 °F 30.25 in Calm   -999.0 mph 66 % 0 in
03:26 62.1 °F 51.0 °F 30.25 in Calm   -999.0 mph 67 % 0 in
03:41 62.8 °F 51.7 °F 30.24 in SSE 2.7 mph -999.0 mph 67 % 0 in
03:56 63.3 °F 51.7 °F 30.24 in NNW 2.2 mph -999.0 mph 66 % 0 in
04:11 63.5 °F 51.5 °F 30.24 in SSE 1.1 mph -999.0 mph 65 % 0 in
04:26 63.5 °F 51.5 °F 30.24 in North 1.7 mph -999.0 mph 65 % 0 in
04:42 63.3 °F 51.7 °F 30.24 in Calm   -999.0 mph 66 % 0 in
04:57 63.3 °F 51.7 °F 30.24 in SSW 2.2 mph -999.0 mph 66 % 0 in
05:12 63.1 °F 52.0 °F 30.24 in Calm   -999.0 mph 67 % 0 in
05:27 63.0 °F 51.9 °F 30.25 in Calm   -999.0 mph 67 % 0 in
05:42 62.8 °F 51.3 °F 30.24 in Calm   -999.0 mph 66 % 0 in
05:58 63.3 °F 51.3 °F 30.25 in South 1.7 mph -999.0 mph 65 % 0 in
06:13 63.1 °F 51.1 °F 30.25 in ESE 2.2 mph -999.0 mph 65 % 0 in
06:28 63.1 °F 50.7 °F 30.25 in NNW 1.1 mph -999.0 mph 64 % 0 in
06:43 63.3 °F 50.1 °F 30.26 in Calm   -999.0 mph 62 % 0 in
06:58 63.3 °F 50.1 °F 30.26 in Calm   -999.0 mph 62 % 0 in
07:14 63.7 °F 50.0 °F 30.26 in Calm   -999.0 mph 61 % 0 in
07:29 64.2 °F 50.5 °F 30.26 in NW 1.7 mph -999.0 mph 61 % 0 in
07:44 64.8 °F 50.1 °F 30.27 in Calm   -999.0 mph 59 % 0 in
07:59 66.2 °F 49.6 °F 30.27 in Calm   -999.0 mph 55 % 0 in
08:15 67.3 °F 49.1 °F 30.27 in West 2.2 mph -999.0 mph 52 % 0 in
08:30 68.0 °F 48.7 °F 30.27 in NNE 4.7 mph -999.0 mph 50 % 0 in
08:45 68.9 °F 49.5 °F 30.27 in Calm   -999.0 mph 50 % 0 in
09:00 69.4 °F 48.9 °F 30.27 in South 1.1 mph -999.0 mph 48 % 0 in
09:15 69.6 °F 49.0 °F 30.27 in South 1.1 mph -999.0 mph 48 % 0 in
09:31 70.0 °F 48.3 °F 30.28 in SSE 4.2 mph -999.0 mph 46 % 0 in
09:47 70.2 °F 49.0 °F 30.28 in SSW 5.3 mph -999.0 mph 47 % 0 in
10:02 70.7 °F 49.5 °F 30.28 in East 1.7 mph -999.0 mph 47 % 0 in
10:18 70.7 °F 49.5 °F 30.28 in WNW 5.3 mph -999.0 mph 47 % 0 in
10:33 72.5 °F 51.1 °F 30.28 in NW 2.2 mph -999.0 mph 47 % 0 in
10:48 72.7 °F 50.7 °F 30.28 in ESE 2.7 mph -999.0 mph 46 % 0 in
11:03 73.6 °F 51.0 °F 30.28 in South 2.7 mph -999.0 mph 45 % 0 in
11:19 73.6 °F 50.3 °F 30.28 in SW 1.1 mph -999.0 mph 44 % 0 in
11:34 73.8 °F 49.9 °F 30.28 in Calm   -999.0 mph 43 % 0 in
11:49 73.4 °F 50.2 °F 30.28 in East 2.7 mph -999.0 mph 44 % 0 in
12:05 73.8 °F 49.9 °F 30.28 in South 3.2 mph -999.0 mph 43 % 0 in
12:20 73.0 °F 49.8 °F 30.27 in SSE 4.2 mph -999.0 mph 44 % 0 in
12:36 74.3 °F 50.4 °F 30.27 in Calm   -999.0 mph 43 % 0 in
12:51 73.9 °F 49.4 °F 30.27 in SSE 2.2 mph -999.0 mph 42 % 0 in
13:06 73.0 °F 49.8 °F 30.26 in ESE 2.2 mph -999.0 mph 44 % 0 in
13:21 73.2 °F 50.0 °F 30.26 in Calm   -999.0 mph 44 % 0 in
13:36 73.4 °F 49.5 °F 30.26 in Calm   -999.0 mph 43 % 0 in
13:52 72.7 °F 53.5 °F 30.26 in NW 1.7 mph -999.0 mph 51 % 0 in
14:07 70.7 °F 57.0 °F 30.26 in WNW 4.2 mph -999.0 mph 62 % 0 in
14:22 72.9 °F 56.8 °F 30.26 in NNW 5.3 mph -999.0 mph 57 % 0 in
14:37 74.7 °F 58.5 °F 30.26 in NE 2.2 mph -999.0 mph 57 % 0 in
14:52 75.4 °F 58.6 °F 30.26 in SSW 2.2 mph -999.0 mph 56 % 0 in
15:08 72.0 °F 58.3 °F 30.25 in Calm   -999.0 mph 62 % 0 in
15:23 71.1 °F 58.7 °F 30.25 in NW 5.3 mph -999.0 mph 65 % 0 in
15:38 70.2 °F 58.3 °F 30.25 in NW 3.7 mph -999.0 mph 66 % 0 in
15:54 69.8 °F 57.5 °F 30.25 in Calm   -999.0 mph 65 % 0 in
16:09 69.6 °F 56.9 °F 30.25 in NNW 2.7 mph -999.0 mph 64 % 0 in
16:24 70.0 °F 56.4 °F 30.25 in NNW 2.7 mph -999.0 mph 62 % 0 in
16:39 69.8 °F 57.1 °F 30.24 in NNW 2.7 mph -999.0 mph 64 % 0 in
16:55 72.5 °F 57.4 °F 30.24 in NW 2.7 mph -999.0 mph 59 % 0 in
17:10 73.6 °F 57.4 °F 30.24 in NW 3.7 mph -999.0 mph 57 % 0 in
17:25 73.4 °F 58.2 °F 30.24 in Calm   -999.0 mph 59 % 0 in
17:40 72.1 °F 59.3 °F 30.24 in WNW 3.2 mph -999.0 mph 64 % 0 in
17:55 70.5 °F 60.6 °F 30.24 in NNE 1.7 mph -999.0 mph 71 % 0 in
18:11 68.5 °F 60.6 °F 30.24 in Calm   -999.0 mph 76 % 0 in
18:26 68.9 °F 59.9 °F 30.24 in Calm   -999.0 mph 73 % 0 in
18:41 67.8 °F 60.3 °F 30.24 in Calm   -999.0 mph 77 % 0 in
18:56 66.4 °F 60.4 °F 30.24 in South 1.1 mph -999.0 mph 81 % 0 in
19:12 64.6 °F 59.7 °F 30.24 in Calm   -999.0 mph 84 % 0 in
19:27 64.6 °F 59.3 °F 30.24 in Calm   -999.0 mph 83 % 0 in
19:42 63.3 °F 58.4 °F 30.25 in Calm   -999.0 mph 84 % 0 in
19:57 62.4 °F 57.8 °F 30.25 in Calm   -999.0 mph 85 % 0 in
20:28 61.0 °F 54.1 °F 30.26 in Calm   -999.0 mph 78 % 0 in
20:43 60.1 °F 51.4 °F 30.26 in Calm   -999.0 mph 73 % 0 in
20:58 59.7 °F 51.8 °F 30.27 in South 2.2 mph -999.0 mph 75 % 0 in
21:13 59.4 °F 51.5 °F 30.27 in Calm   -999.0 mph 75 % 0 in
21:28 59.0 °F 51.4 °F 30.28 in Calm   -999.0 mph 76 % 0 in
21:44 58.6 °F 51.1 °F 30.28 in South 2.2 mph -999.0 mph 76 % 0 in
21:59 57.9 °F 50.0 °F 30.28 in Calm   -999.0 mph 75 % 0 in
22:14 56.7 °F 48.5 °F 30.28 in Calm   -999.0 mph 74 % 0 in
22:44 55.6 °F 49.2 °F 30.29 in Calm   -999.0 mph 79 % 0 in
23:00 55.2 °F 49.1 °F 30.29 in Calm   -999.0 mph 80 % 0 in
23:30 54.3 °F 48.6 °F 30.29 in Calm   -999.0 mph 81 % 0 in
23:45 54.0 °F 48.3 °F 30.29 in Calm   -999.0 mph 81 % 0 in
Big Bear CA Weather
Compliments of Weather Underground - 1.5 mb